Coos Bay, OR

10:52 PM PDT on September 14, 2014 (GMT -0700)
Red Dyke Road | Change Station
CLOSE
Current Station
Personal Weather Station
Location: Coos Bay, OR
Elevation: 39 ft
Nearby Weather Stations

Elev 39 ft 43.33 °N, 124.23 °W | Updated 19 seconds ago

Overcast
Overcast
49.5 °F
Feels Like 50 °F
N
0.0
Wind Variable Wind from SW
Gusts 0.0 mph

Today
High -- | Low -- °F
--% Chance of Precip.
Yesterday
High -- | Low -- °F
Precip. -- in
6:55 AM 7:28 PM
Waning Gibbous, 58% visible
Pressure 29.86 in
Visibility 0.2 miles
Clouds Overcast 200 ft
Windchill 50 °F
Dew Point -3 °F
Humidity 11%
Rainfall 0.00 in
Snow Depth Not available.
UV 0 out of 12
Pollen 2.00 out of 12
Air Quality Not available.
Flu Activity Not available.
METAR KOTH 150535Z 00000KT 1/4SM OVC002 11/11 A2986 RMK AO1

More Conditions Fewer Conditions

Pressure 29.86 in
Visibility 0.2 miles
Clouds Overcast 200 ft
Windchill 50 °F
Dew Point -3 °F
Humidity 11%
Rainfall 0.00 in
Snow Depth Not available.
UV 0 out of 12
Pollen 2.00 out of 12
Air Quality Not available.
Flu Activity Not available.
METAR KOTH 150535Z 00000KT 1/4SM OVC002 11/11 A2986 RMK AO1

More Conditions Fewer Conditions

10-Day Weather Forecast

Almanac

Astronomy

Sep. 14, 2014 Rise Set
Actual Time 6:55 AM PDT 7:28 PM PDT
Civil Twilight 6:26 AM PDT 7:57 PM PDT
Nautical Twilight 5:52 AM PDT 8:31 PM PDT
Astronomical Twilight 5:17 AM PDT 9:06 PM PDT
Moon 11:16 PM PDT (9/14) 1:16 PM PDT (9/14)
Length of Visible Light 13h 30m
Length of Day
12h 33m
Tomorrow will be 2m 56s shorter.
Waning Gibbous, 58% of the Moon is Illuminated
Sep 15
Waning Gibbous
Sep 15
Last Quarter
Sep 24
New
Oct 1
First Quarter
Oct 8
Full

Yesterday's Extremes

State Highs State Lows

Community

WunderPhotos

Upload Photos

1,753,416 photos uploaded!

WunderBlogs® & News

Nearby

Snow Depth

Station Depth Elevation
Holland Meadows 1 in 4900 ft
Bigelow Camp 1 in 5120 ft
Diamond Lake 0 in 5315 ft
Salt Creek Falls 0 in 4000 ft
Cascade Summit 0 in 4880 ft

Earthquake Activity

City Distance Mag. Time & Date
No recent earthquake activity has been reported nearby.
Minimum magnitude displayed is 2.5.

Coastal Water Temperatures

Place Temperature
Port Orford, OR 57.0 °F
Charleston, OR 52.0 °F
South Beach, OR 53.1 °F

Nearby Weather Stations